Time,TemperatureF,DewpointF,PressureIn,WindDirection,WindDirectionDegrees,WindSpeedMPH,WindSpeedGustMPH,Humidity,HourlyPrecipIn,Conditions,Clouds,dailyrainin,SoftwareType,DateUTC
2013-11-08 00:00:00,32.7,25.3,26.57,NW,315,18.5,25.2,74,0.00,,,0.00,WUHU216HW,2013-11-08 05:00:00,
2013-11-08 00:05:00,32.5,25.1,26.57,NNW,338,18.7,25.0,74,0.00,,,0.00,WUHU216HW,2013-11-08 05:05:00,
2013-11-08 00:10:00,32.5,25.1,26.57,NNW,338,18.7,18.7,74,0.00,,,0.00,WUHU216HW,2013-11-08 05:10:00,
2013-11-08 00:15:00,32.3,24.9,26.57,NW,315,16.7,19.0,74,0.00,,,0.00,WUHU216HW,2013-11-08 05:15:00,
2013-11-08 00:20:00,32.3,24.9,26.57,NNW,338,21.2,21.2,74,0.00,,,0.00,WUHU216HW,2013-11-08 05:20:00,
2013-11-08 00:25:00,32.3,24.9,26.58,NNW,338,18.1,21.2,74,0.00,,,0.00,WUHU216HW,2013-11-08 05:25:00,
2013-11-08 00:30:00,32.3,24.9,26.58,NW,315,15.4,21.2,74,0.00,,,0.00,WUHU216HW,2013-11-08 05:30:00,
2013-11-08 00:35:00,32.1,24.8,26.58,NW,315,20.8,20.8,74,0.00,,,0.00,WUHU216HW,2013-11-08 05:35:00,
2013-11-08 00:40:00,32.1,24.8,26.58,NNW,338,16.7,20.8,74,0.00,,,0.00,WUHU216HW,2013-11-08 05:40:00,
2013-11-08 00:45:00,32.1,24.8,26.58,NW,315,16.5,20.8,74,0.00,,,0.00,WUHU216HW,2013-11-08 05:45:00,
2013-11-08 00:50:00,32.1,24.8,26.58,WNW,293,15.4,17.6,74,0.00,,,0.00,WUHU216HW,2013-11-08 05:50:00,
2013-11-08 00:55:00,32.1,25.1,26.58,WNW,293,9.6,17.4,75,0.00,,,0.00,WUHU216HW,2013-11-08 05:55:00,
2013-11-08 01:00:00,32.1,25.1,26.59,NW,315,12.3,19.0,75,0.00,,,0.00,WUHU216HW,2013-11-08 06:00:00,
2013-11-08 01:05:00,32.1,25.1,26.59,NW,315,8.7,19.0,75,0.00,,,0.00,WUHU216HW,2013-11-08 06:05:00,
2013-11-08 01:10:00,32.1,25.1,26.59,NW,315,12.9,12.9,75,0.00,,,0.00,WUHU216HW,2013-11-08 06:10:00,
2013-11-08 01:15:00,32.1,25.1,26.59,NNW,338,14.9,14.9,75,0.00,,,0.00,WUHU216HW,2013-11-08 06:15:00,
2013-11-08 01:20:00,32.1,25.1,26.59,NNW,338,14.7,14.9,75,0.00,,,0.00,WUHU216HW,2013-11-08 06:20:00,
2013-11-08 01:25:00,32.0,24.6,26.59,NW,315,12.3,14.9,74,0.00,,,0.00,WUHU216HW,2013-11-08 06:25:00,
2013-11-08 01:30:00,31.8,24.4,26.59,WNW,293,15.4,15.4,74,0.00,,,0.00,WUHU216HW,2013-11-08 06:30:00,
2013-11-08 01:35:00,31.8,24.4,26.59,NNW,338,8.9,15.8,74,0.00,,,0.00,WUHU216HW,2013-11-08 06:35:00,
2013-11-08 01:40:00,31.8,24.4,26.59,WNW,293,15.2,16.1,74,0.00,,,0.00,WUHU216HW,2013-11-08 06:40:00,
2013-11-08 01:45:00,31.8,24.4,26.59,WNW,293,17.8,17.8,74,0.00,,,0.00,WUHU216HW,2013-11-08 06:45:00,
2013-11-08 01:50:00,31.8,24.4,26.59,NW,315,12.9,17.8,74,0.00,,,0.00,WUHU216HW,2013-11-08 06:50:00,
2013-11-08 01:55:00,31.6,24.2,26.59,NW,315,13.1,17.8,74,0.00,,,0.00,WUHU216HW,2013-11-08 06:55:00,
2013-11-08 02:00:00,31.6,24.2,26.59,NW,315,18.5,19.0,74,0.00,,,0.00,WUHU216HW,2013-11-08 07:00:00,
2013-11-08 02:05:00,31.6,24.2,26.59,WNW,293,19.4,19.4,74,0.00,,,0.00,WUHU216HW,2013-11-08 07:05:00,
2013-11-08 02:10:00,31.6,24.2,26.59,WNW,293,14.9,19.4,74,0.00,,,0.00,WUHU216HW,2013-11-08 07:10:00,
2013-11-08 02:15:00,31.4,24.1,26.59,NNW,338,13.8,19.4,74,0.00,,,0.00,WUHU216HW,2013-11-08 07:15:00,
2013-11-08 02:20:00,31.2,23.9,26.59,WNW,293,14.3,25.5,74,0.00,,,0.00,WUHU216HW,2013-11-08 07:20:00,
2013-11-08 02:25:00,31.2,23.9,26.59,West,270,17.6,25.5,74,0.00,,,0.00,WUHU216HW,2013-11-08 07:25:00,
2013-11-08 02:30:00,31.2,23.9,26.60,NW,315,17.6,17.6,74,0.00,,,0.00,WUHU216HW,2013-11-08 07:30:00,
2013-11-08 02:35:00,31.2,23.9,26.59,WNW,293,21.2,21.2,74,0.00,,,0.00,WUHU216HW,2013-11-08 07:35:00,
2013-11-08 02:40:00,31.1,23.7,26.60,WNW,293,13.8,21.2,74,0.00,,,0.00,WUHU216HW,2013-11-08 07:40:00,
2013-11-08 02:45:00,31.1,23.4,26.59,NW,315,12.3,21.2,73,0.00,,,0.00,WUHU216HW,2013-11-08 07:45:00,
2013-11-08 02:50:00,30.9,23.2,26.60,NW,315,12.7,17.2,73,0.00,,,0.00,WUHU216HW,2013-11-08 07:50:00,
2013-11-08 02:55:00,30.9,23.2,26.59,NW,315,15.2,18.7,73,0.00,,,0.00,WUHU216HW,2013-11-08 07:55:00,
2013-11-08 03:00:00,30.9,23.2,26.59,NNW,338,15.6,18.7,73,0.00,,,0.00,WUHU216HW,2013-11-08 08:00:00,
2013-11-08 03:05:00,30.9,22.9,26.59,NNW,338,15.6,17.4,72,0.00,,,0.00,WUHU216HW,2013-11-08 08:05:00,
2013-11-08 03:10:00,30.9,22.9,26.59,NW,315,13.6,17.4,72,0.00,,,0.00,WUHU216HW,2013-11-08 08:10:00,
2013-11-08 03:16:00,30.7,22.7,26.58,NW,315,16.1,16.1,72,0.00,,,0.00,WUHU216HW,2013-11-08 08:16:00,
2013-11-08 03:21:00,30.7,22.7,26.58,NW,315,12.5,19.2,72,0.00,,,0.00,WUHU216HW,2013-11-08 08:21:00,
2013-11-08 03:26:00,30.7,22.7,26.59,NNW,338,18.3,21.0,72,0.00,,,0.00,WUHU216HW,2013-11-08 08:26:00,
2013-11-08 03:31:00,30.7,22.7,26.59,NW,315,17.0,21.0,72,0.00,,,0.00,WUHU216HW,2013-11-08 08:31:00,
2013-11-08 03:36:00,30.7,22.7,26.59,NW,315,17.0,18.3,72,0.00,,,0.00,WUHU216HW,2013-11-08 08:36:00,
2013-11-08 03:41:00,30.7,22.7,26.59,NW,315,13.8,18.5,72,0.00,,,0.00,WUHU216HW,2013-11-08 08:41:00,
2013-11-08 03:46:00,30.7,22.7,26.59,WNW,293,17.6,18.5,72,0.00,,,0.00,WUHU216HW,2013-11-08 08:46:00,
2013-11-08 03:51:00,30.5,22.5,26.60,NW,315,15.6,17.6,72,0.00,,,0.00,WUHU216HW,2013-11-08 08:51:00,
2013-11-08 03:56:00,30.5,22.5,26.60,NW,315,15.2,19.6,72,0.00,,,0.00,WUHU216HW,2013-11-08 08:56:00,
2013-11-08 04:01:00,30.5,22.5,26.60,NW,315,14.0,19.6,72,0.00,,,0.00,WUHU216HW,2013-11-08 09:01:00,
2013-11-08 04:06:00,30.3,22.3,26.60,NW,315,18.7,18.7,72,0.00,,,0.00,WUHU216HW,2013-11-08 09:06:00,
2013-11-08 04:11:00,30.3,22.3,26.60,WNW,293,16.7,19.0,72,0.00,,,0.00,WUHU216HW,2013-11-08 09:11:00,
2013-11-08 04:16:00,30.3,22.3,26.60,NW,315,12.5,19.0,72,0.00,,,0.00,WUHU216HW,2013-11-08 09:16:00,
2013-11-08 04:21:00,30.3,22.3,26.60,WNW,293,16.7,20.5,72,0.00,,,0.00,WUHU216HW,2013-11-08 09:21:00,
2013-11-08 04:26:00,30.3,22.3,26.61,NW,315,11.4,23.2,72,0.00,,,0.00,WUHU216HW,2013-11-08 09:26:00,
2013-11-08 04:31:00,30.3,22.3,26.60,WNW,293,16.3,23.2,72,0.00,,,0.00,WUHU216HW,2013-11-08 09:31:00,
2013-11-08 04:36:00,30.3,22.3,26.60,WNW,293,12.0,23.0,72,0.00,,,0.00,WUHU216HW,2013-11-08 09:36:00,
2013-11-08 04:41:00,30.2,22.2,26.61,NW,315,14.0,14.0,72,0.00,,,0.00,WUHU216HW,2013-11-08 09:41:00,
2013-11-08 04:46:00,30.2,22.2,26.61,NW,315,9.6,14.0,72,0.00,,,0.00,WUHU216HW,2013-11-08 09:46:00,
2013-11-08 04:51:00,30.0,22.0,26.61,NW,315,12.7,16.7,72,0.00,,,0.00,WUHU216HW,2013-11-08 09:51:00,
2013-11-08 04:56:00,30.0,22.0,26.61,NW,315,13.1,16.7,72,0.00,,,0.00,WUHU216HW,2013-11-08 09:56:00,
2013-11-08 05:01:00,30.0,22.3,26.61,WNW,293,19.0,19.0,73,0.00,,,0.00,WUHU216HW,2013-11-08 10:01:00,
2013-11-08 05:06:00,30.0,22.3,26.61,WNW,293,14.0,19.0,73,0.00,,,0.00,WUHU216HW,2013-11-08 10:06:00,
2013-11-08 05:11:00,30.0,22.3,26.61,NW,315,11.6,14.9,73,0.00,,,0.00,WUHU216HW,2013-11-08 10:11:00,
2013-11-08 05:16:00,30.0,22.3,26.61,WNW,293,11.1,17.6,73,0.00,,,0.00,WUHU216HW,2013-11-08 10:16:00,
2013-11-08 05:21:00,30.0,22.3,26.61,NW,315,14.0,17.6,73,0.00,,,0.00,WUHU216HW,2013-11-08 10:21:00,
2013-11-08 05:26:00,30.0,22.3,26.61,West,270,17.4,17.4,73,0.00,,,0.00,WUHU216HW,2013-11-08 10:26:00,
2013-11-08 05:31:00,30.0,22.3,26.61,NW,315,11.1,17.4,73,0.00,,,0.00,WUHU216HW,2013-11-08 10:31:00,
2013-11-08 05:36:00,30.0,22.3,26.61,WNW,293,16.5,16.5,73,0.00,,,0.00,WUHU216HW,2013-11-08 10:36:00,
2013-11-08 05:41:00,29.8,22.1,26.61,WNW,293,11.1,16.5,73,0.00,,,0.00,WUHU216HW,2013-11-08 10:41:00,
2013-11-08 05:46:00,29.8,22.1,26.61,WNW,293,13.6,19.2,73,0.00,,,0.00,WUHU216HW,2013-11-08 10:46:00,
2013-11-08 05:51:00,30.0,22.3,26.61,NW,315,15.6,19.2,73,0.00,,,0.00,WUHU216HW,2013-11-08 10:51:00,
2013-11-08 05:56:00,30.0,22.3,26.61,WNW,293,13.1,19.0,73,0.00,,,0.00,WUHU216HW,2013-11-08 10:56:00,
2013-11-08 06:01:00,30.0,22.3,26.61,WNW,293,13.4,15.6,73,0.00,,,0.00,WUHU216HW,2013-11-08 11:01:00,
2013-11-08 06:06:00,30.0,22.3,26.61,WNW,293,19.6,19.6,73,0.00,,,0.00,WUHU216HW,2013-11-08 11:06:00,
2013-11-08 06:11:00,30.0,22.3,26.61,WNW,293,21.0,21.0,73,0.00,,,0.00,WUHU216HW,2013-11-08 11:11:00,
2013-11-08 06:16:00,30.0,22.3,26.61,WNW,293,18.5,21.0,73,0.00,,,0.00,WUHU216HW,2013-11-08 11:16:00,
2013-11-08 06:21:00,30.0,22.3,26.61,WNW,293,18.5,18.5,73,0.00,,,0.00,WUHU216HW,2013-11-08 11:21:00,
2013-11-08 06:26:00,30.0,22.3,26.61,WNW,293,18.5,18.5,73,0.00,,,0.00,WUHU216HW,2013-11-08 11:26:00,
2013-11-08 06:43:00,30.0,22.6,26.62,NW,315,12.3,15.8,74,0.00,,,0.00,WUHU216HW,2013-11-08 11:43:00,
2013-11-08 06:48:00,30.0,22.6,26.62,NW,315,15.2,17.2,74,0.00,,,0.00,WUHU216HW,2013-11-08 11:48:00,
2013-11-08 06:53:00,30.0,22.6,26.62,NW,315,14.9,21.6,74,0.00,,,0.00,WUHU216HW,2013-11-08 11:53:00,
2013-11-08 06:58:00,30.0,22.6,26.62,WNW,293,15.8,21.6,74,0.00,,,0.00,WUHU216HW,2013-11-08 11:58:00,
2013-11-08 07:03:00,30.0,22.6,26.62,West,270,13.6,15.8,74,0.00,,,0.00,WUHU216HW,2013-11-08 12:03:00,
2013-11-08 07:08:00,30.0,22.6,26.63,NW,315,24.1,24.1,74,0.00,,,0.00,WUHU216HW,2013-11-08 12:08:00,
2013-11-08 07:13:00,30.0,22.6,26.63,NW,315,21.0,24.1,74,0.00,,,0.00,WUHU216HW,2013-11-08 12:13:00,
2013-11-08 07:18:00,30.0,22.6,26.63,West,270,11.6,21.0,74,0.00,,,0.00,WUHU216HW,2013-11-08 12:18:00,
2013-11-08 07:23:00,30.0,22.6,26.63,NNW,338,17.2,21.0,74,0.00,,,0.00,WUHU216HW,2013-11-08 12:23:00,
2013-11-08 07:28:00,29.8,22.5,26.63,NW,315,15.8,17.2,74,0.00,,,0.00,WUHU216HW,2013-11-08 12:28:00,
2013-11-08 07:33:00,29.8,22.5,26.63,NW,315,16.5,17.0,74,0.00,,,0.00,WUHU216HW,2013-11-08 12:33:00,
2013-11-08 07:38:00,30.0,22.6,26.63,WNW,293,16.1,16.5,74,0.00,,,0.00,WUHU216HW,2013-11-08 12:38:00,
2013-11-08 07:43:00,30.0,22.6,26.63,NW,315,16.5,20.3,74,0.00,,,0.00,WUHU216HW,2013-11-08 12:43:00,
2013-11-08 07:48:00,30.0,22.6,26.64,WNW,293,14.3,20.3,74,0.00,,,0.00,WUHU216HW,2013-11-08 12:48:00,
2013-11-08 07:53:00,30.0,22.6,26.64,WNW,293,14.5,20.1,74,0.00,,,0.00,WUHU216HW,2013-11-08 12:53:00,
2013-11-08 07:58:00,30.0,22.6,26.64,WNW,293,9.8,16.5,74,0.00,,,0.00,WUHU216HW,2013-11-08 12:58:00,
2013-11-08 08:03:00,30.0,22.6,26.64,NW,315,11.1,16.5,74,0.00,,,0.00,WUHU216HW,2013-11-08 13:03:00,
2013-11-08 08:08:00,30.3,23.0,26.64,NW,315,16.7,17.4,74,0.00,,,0.00,WUHU216HW,2013-11-08 13:08:00,
2013-11-08 08:13:00,30.3,23.0,26.65,NW,315,17.4,17.4,74,0.00,,,0.00,WUHU216HW,2013-11-08 13:13:00,
2013-11-08 08:18:00,30.3,23.0,26.65,NNW,338,12.7,17.4,74,0.00,,,0.00,WUHU216HW,2013-11-08 13:18:00,
2013-11-08 08:23:00,30.3,22.7,26.66,NNW,338,12.3,17.4,73,0.00,,,0.00,WUHU216HW,2013-11-08 13:23:00,
2013-11-08 08:28:00,30.7,23.0,26.65,NW,315,20.5,20.5,73,0.00,,,0.00,WUHU216HW,2013-11-08 13:28:00,
2013-11-08 08:33:00,30.7,23.0,26.66,NW,315,10.9,20.5,73,0.00,,,0.00,WUHU216HW,2013-11-08 13:33:00,
2013-11-08 08:38:00,30.7,22.7,26.66,NW,315,15.6,20.5,72,0.00,,,0.00,WUHU216HW,2013-11-08 13:38:00,
2013-11-08 08:43:00,30.9,22.9,26.67,NW,315,13.6,16.1,72,0.00,,,0.00,WUHU216HW,2013-11-08 13:43:00,
2013-11-08 08:48:00,31.1,22.7,26.67,NW,315,12.7,15.8,71,0.00,,,0.00,WUHU216HW,2013-11-08 13:48:00,
2013-11-08 08:53:00,31.2,22.9,26.66,NW,315,17.2,17.2,71,0.00,,,0.00,WUHU216HW,2013-11-08 13:53:00,
2013-11-08 08:58:00,31.4,23.1,26.66,NW,315,15.6,20.3,71,0.00,,,0.00,WUHU216HW,2013-11-08 13:58:00,
2013-11-08 09:03:00,31.6,23.3,26.66,NW,315,13.6,26.1,71,0.00,,,0.00,WUHU216HW,2013-11-08 14:03:00,
2013-11-08 09:08:00,31.6,23.0,26.66,NW,315,19.0,26.1,70,0.00,,,0.00,WUHU216HW,2013-11-08 14:08:00,
2013-11-08 09:13:00,31.8,23.1,26.66,WNW,293,18.1,19.0,70,0.00,,,0.00,WUHU216HW,2013-11-08 14:13:00,
2013-11-08 09:18:00,31.8,22.8,26.67,NNW,338,20.3,20.3,69,0.00,,,0.00,WUHU216HW,2013-11-08 14:18:00,
2013-11-08 09:23:00,32.0,23.0,26.68,NW,315,17.6,20.3,69,0.00,,,0.00,WUHU216HW,2013-11-08 14:23:00,
2013-11-08 09:28:00,32.1,22.8,26.68,WNW,293,19.0,20.3,68,0.00,,,0.00,WUHU216HW,2013-11-08 14:28:00,
2013-11-08 09:34:00,32.5,23.1,26.68,NW,315,12.7,19.0,68,0.00,,,0.00,WUHU216HW,2013-11-08 14:34:00,
2013-11-08 09:39:00,32.5,22.7,26.68,NW,315,13.1,19.0,67,0.00,,,0.00,WUHU216HW,2013-11-08 14:39:00,
2013-11-08 09:44:00,32.7,22.5,26.68,NW,315,10.7,17.4,66,0.00,,,0.00,WUHU216HW,2013-11-08 14:44:00,
2013-11-08 09:49:00,32.9,22.3,26.69,NNW,338,14.5,17.4,65,0.00,,,0.00,WUHU216HW,2013-11-08 14:49:00,
2013-11-08 09:54:00,33.0,22.5,26.69,WNW,293,18.7,18.7,65,0.00,,,0.00,WUHU216HW,2013-11-08 14:54:00,
2013-11-08 09:59:00,33.2,21.9,26.69,NNW,338,15.6,18.7,63,0.00,,,0.00,WUHU216HW,2013-11-08 14:59:00,
2013-11-08 10:04:00,33.2,21.9,26.69,NNW,338,15.6,17.0,63,0.00,,,0.00,WUHU216HW,2013-11-08 15:04:00,
2013-11-08 10:09:00,33.2,21.9,26.69,NNW,338,15.6,15.6,63,0.00,,,0.00,WUHU216HW,2013-11-08 15:09:00,
2013-11-08 10:14:00,33.4,22.1,26.69,NNW,338,17.2,18.5,63,0.00,,,0.00,WUHU216HW,2013-11-08 15:14:00,
2013-11-08 10:19:00,33.6,21.9,26.69,NW,315,17.0,18.5,62,0.00,,,0.00,WUHU216HW,2013-11-08 15:19:00,
2013-11-08 10:25:00,33.6,21.5,26.69,NW,315,11.6,17.8,61,0.00,,,0.00,WUHU216HW,2013-11-08 15:25:00,
2013-11-08 10:30:00,33.9,22.2,26.69,WNW,293,12.3,17.6,62,0.00,,,0.00,WUHU216HW,2013-11-08 15:30:00,
2013-11-08 10:35:00,34.1,22.4,26.70,NNW,338,8.7,14.0,62,0.00,,,0.00,WUHU216HW,2013-11-08 15:35:00,
2013-11-08 10:40:00,34.3,22.6,26.70,NNW,338,13.6,13.8,62,0.00,,,0.00,WUHU216HW,2013-11-08 15:40:00,
2013-11-08 10:45:00,34.3,22.2,26.70,NW,315,18.7,18.7,61,0.00,,,0.00,WUHU216HW,2013-11-08 15:45:00,
2013-11-08 10:50:00,34.3,22.2,26.70,NNW,338,10.0,18.7,61,0.00,,,0.00,WUHU216HW,2013-11-08 15:50:00,
2013-11-08 10:55:00,34.7,23.0,26.70,WNW,293,8.5,14.5,62,0.00,,,0.00,WUHU216HW,2013-11-08 15:55:00,
2013-11-08 11:00:00,34.7,23.0,26.71,WNW,293,11.1,11.1,62,0.00,,,0.00,WUHU216HW,2013-11-08 16:00:00,
2013-11-08 11:05:00,34.8,22.8,26.71,NNW,338,16.7,16.7,61,0.00,,,0.00,WUHU216HW,2013-11-08 16:05:00,
2013-11-08 11:10:00,34.8,22.8,26.71,NNW,338,8.7,16.7,61,0.00,,,0.00,WUHU216HW,2013-11-08 16:10:00,
2013-11-08 11:15:00,34.8,22.4,26.71,NNW,338,11.8,16.7,60,0.00,,,0.00,WUHU216HW,2013-11-08 16:15:00,
2013-11-08 11:20:00,35.2,22.8,26.71,NW,315,13.1,14.0,61,0.00,,,0.00,WUHU216HW,2013-11-08 16:20:00,
2013-11-08 11:25:00,35.4,23.3,26.70,North,0,15.8,15.8,61,0.00,,,0.00,WUHU216HW,2013-11-08 16:25:00,
2013-11-08 11:30:00,35.2,21.9,26.70,NNW,338,19.6,19.6,58,0.00,,,0.00,WUHU216HW,2013-11-08 16:30:00,
2013-11-08 11:35:00,35.4,22.1,26.69,NW,315,13.6,19.6,58,0.00,,,0.00,WUHU216HW,2013-11-08 16:35:00,
2013-11-08 11:40:00,35.6,22.3,26.69,West,270,19.0,23.0,58,0.00,,,0.00,WUHU216HW,2013-11-08 16:40:00,
2013-11-08 11:45:00,35.7,22.0,26.70,NW,315,16.1,23.0,57,0.00,,,0.00,WUHU216HW,2013-11-08 16:45:00,
2013-11-08 11:50:00,35.7,22.0,26.70,NW,315,12.5,21.2,57,0.00,,,0.00,WUHU216HW,2013-11-08 16:50:00,
2013-11-08 11:55:00,36.1,22.8,26.70,NW,315,12.0,16.1,58,0.00,,,0.00,WUHU216HW,2013-11-08 16:55:00,
2013-11-08 12:00:00,36.3,22.5,26.69,NNW,338,10.7,14.5,57,0.00,,,0.00,WUHU216HW,2013-11-08 17:00:00,
2013-11-08 12:05:00,36.3,22.5,26.69,NW,315,11.8,14.9,57,0.00,,,0.00,WUHU216HW,2013-11-08 17:05:00,
2013-11-08 12:10:00,36.6,21.9,26.69,North,0,13.6,14.9,55,0.00,,,0.00,WUHU216HW,2013-11-08 17:10:00,
2013-11-08 12:15:00,36.6,21.9,26.69,NW,315,9.3,13.6,55,0.00,,,0.00,WUHU216HW,2013-11-08 17:15:00,
2013-11-08 12:20:00,36.6,21.9,26.69,NW,315,16.1,16.1,55,0.00,,,0.00,WUHU216HW,2013-11-08 17:20:00,
2013-11-08 12:25:00,37.0,21.8,26.69,NW,315,11.4,16.1,54,0.00,,,0.00,WUHU216HW,2013-11-08 17:25:00,
2013-11-08 12:30:00,37.0,21.8,26.69,WNW,293,16.3,16.3,54,0.00,,,0.00,WUHU216HW,2013-11-08 17:30:00,
2013-11-08 12:35:00,37.0,21.4,26.69,NW,315,13.6,16.3,53,0.00,,,0.00,WUHU216HW,2013-11-08 17:35:00,
2013-11-08 12:40:00,37.2,21.6,26.69,NW,315,13.6,16.3,53,0.00,,,0.00,WUHU216HW,2013-11-08 17:40:00,
2013-11-08 12:45:00,37.2,21.1,26.69,NW,315,12.5,17.2,52,0.00,,,0.00,WUHU216HW,2013-11-08 17:45:00,
2013-11-08 12:50:00,37.2,20.7,26.68,NW,315,16.3,17.2,51,0.00,,,0.00,WUHU216HW,2013-11-08 17:50:00,
2013-11-08 12:55:00,37.2,21.1,26.68,NW,315,12.7,17.0,52,0.00,,,0.00,WUHU216HW,2013-11-08 17:55:00,
2013-11-08 13:00:00,37.2,21.1,26.68,NW,315,13.8,14.7,52,0.00,,,0.00,WUHU216HW,2013-11-08 18:00:00,
2013-11-08 13:05:00,37.4,21.3,26.67,WNW,293,11.6,13.8,52,0.00,,,0.00,WUHU216HW,2013-11-08 18:05:00,
2013-11-08 13:10:00,37.7,21.2,26.67,WNW,293,18.3,23.7,51,0.00,,,0.00,WUHU216HW,2013-11-08 18:10:00,
2013-11-08 13:15:00,37.7,21.2,26.67,NW,315,15.4,23.7,51,0.00,,,0.00,WUHU216HW,2013-11-08 18:15:00,
2013-11-08 13:20:00,37.5,21.0,26.67,NW,315,12.5,19.6,51,0.00,,,0.00,WUHU216HW,2013-11-08 18:20:00,
2013-11-08 13:25:00,37.7,20.8,26.67,NW,315,17.2,17.2,50,0.00,,,0.00,WUHU216HW,2013-11-08 18:25:00,
2013-11-08 13:30:00,37.7,20.8,26.67,NNW,338,14.9,17.2,50,0.00,,,0.00,WUHU216HW,2013-11-08 18:30:00,
2013-11-08 13:35:00,37.9,20.9,26.67,NW,315,12.7,14.9,50,0.00,,,0.00,WUHU216HW,2013-11-08 18:35:00,
2013-11-08 13:40:00,38.1,21.1,26.67,North,0,12.5,14.9,50,0.00,,,0.00,WUHU216HW,2013-11-08 18:40:00,
2013-11-08 13:45:00,38.1,20.2,26.67,NW,315,13.4,16.3,48,0.00,,,0.00,WUHU216HW,2013-11-08 18:45:00,
2013-11-08 13:51:00,38.3,20.7,26.67,NW,315,13.8,16.3,49,0.00,,,0.00,WUHU216HW,2013-11-08 18:51:00,
2013-11-08 13:56:00,38.4,20.9,26.67,NW,315,10.2,13.8,49,0.00,,,0.00,WUHU216HW,2013-11-08 18:56:00,
2013-11-08 14:01:00,38.4,20.9,26.67,NW,315,10.2,16.1,49,0.00,,,0.00,WUHU216HW,2013-11-08 19:01:00,
2013-11-08 14:06:00,38.4,20.9,26.67,NW,315,18.3,18.3,49,0.00,,,0.00,WUHU216HW,2013-11-08 19:06:00,
2013-11-08 14:11:00,38.4,20.4,26.67,NW,315,20.3,20.3,48,0.00,,,0.00,WUHU216HW,2013-11-08 19:11:00,
2013-11-08 14:16:00,38.3,19.7,26.67,NNW,338,13.4,20.3,47,0.00,,,0.00,WUHU216HW,2013-11-08 19:16:00,
2013-11-08 14:21:00,38.4,20.4,26.67,WNW,293,17.8,20.3,48,0.00,,,0.00,WUHU216HW,2013-11-08 19:21:00,
2013-11-08 14:26:00,38.3,19.7,26.67,NW,315,15.8,17.8,47,0.00,,,0.00,WUHU216HW,2013-11-08 19:26:00,
2013-11-08 14:31:00,38.1,20.0,26.67,NW,315,17.0,17.6,48,0.00,,,0.00,WUHU216HW,2013-11-08 19:31:00,
2013-11-08 14:36:00,38.1,19.5,26.67,NW,315,13.8,18.5,47,0.00,,,0.00,WUHU216HW,2013-11-08 19:36:00,
2013-11-08 14:41:00,38.1,19.5,26.67,North,0,18.1,18.5,47,0.00,,,0.00,WUHU216HW,2013-11-08 19:41:00,
2013-11-08 14:46:00,38.1,19.5,26.67,NNW,338,17.6,18.7,47,0.00,,,0.00,WUHU216HW,2013-11-08 19:46:00,
2013-11-08 14:51:00,38.1,19.5,26.68,NW,315,12.7,18.7,47,0.00,,,0.00,WUHU216HW,2013-11-08 19:51:00,
2013-11-08 14:56:00,38.3,19.7,26.68,NW,315,7.6,15.8,47,0.00,,,0.00,WUHU216HW,2013-11-08 19:56:00,
2013-11-08 15:01:00,38.1,19.5,26.68,WNW,293,16.1,16.1,47,0.00,,,0.00,WUHU216HW,2013-11-08 20:01:00,
2013-11-08 15:06:00,38.3,19.2,26.68,NW,315,16.3,19.0,46,0.00,,,0.00,WUHU216HW,2013-11-08 20:06:00,
2013-11-08 15:11:00,38.1,19.0,26.68,NW,315,15.4,19.6,46,0.00,,,0.00,WUHU216HW,2013-11-08 20:11:00,
2013-11-08 15:16:00,38.1,19.0,26.68,NW,315,10.7,19.6,46,0.00,,,0.00,WUHU216HW,2013-11-08 20:16:00,
2013-11-08 15:21:00,38.1,19.0,26.68,North,0,12.5,15.6,46,0.00,,,0.00,WUHU216HW,2013-11-08 20:21:00,
2013-11-08 15:26:00,38.3,19.2,26.68,North,0,15.4,15.6,46,0.00,,,0.00,WUHU216HW,2013-11-08 20:26:00,
2013-11-08 15:31:00,38.4,19.3,26.68,SW,225,14.9,15.6,46,0.00,,,0.00,WUHU216HW,2013-11-08 20:31:00,
2013-11-08 15:36:00,38.3,19.2,26.68,NNW,338,13.4,15.6,46,0.00,,,0.00,WUHU216HW,2013-11-08 20:36:00,
2013-11-08 15:41:00,38.4,20.4,26.68,NW,315,12.3,15.6,48,0.00,,,0.00,WUHU216HW,2013-11-08 20:41:00,
2013-11-08 15:46:00,38.4,20.4,26.68,WNW,293,12.9,12.9,48,0.00,,,0.00,WUHU216HW,2013-11-08 20:46:00,
2013-11-08 15:51:00,38.4,19.8,26.69,NNW,338,9.8,13.4,47,0.00,,,0.00,WUHU216HW,2013-11-08 20:51:00,
2013-11-08 15:56:00,38.4,20.4,26.68,NNW,338,7.8,13.4,48,0.00,,,0.00,WUHU216HW,2013-11-08 20:56:00,
2013-11-08 16:01:00,38.4,20.9,26.68,NW,315,8.5,12.3,49,0.00,,,0.00,WUHU216HW,2013-11-08 21:01:00,
2013-11-08 16:06:00,38.4,21.4,26.68,NW,315,11.6,12.3,50,0.00,,,0.00,WUHU216HW,2013-11-08 21:06:00,
2013-11-08 16:11:00,38.4,20.9,26.68,NW,315,9.6,11.6,49,0.00,,,0.00,WUHU216HW,2013-11-08 21:11:00,
2013-11-08 16:16:00,38.4,21.4,26.68,NW,315,9.6,9.6,50,0.00,,,0.00,WUHU216HW,2013-11-08 21:16:00,
2013-11-08 16:21:00,38.4,21.4,26.68,NNW,338,9.8,9.8,50,0.00,,,0.00,WUHU216HW,2013-11-08 21:21:00,
2013-11-08 16:26:00,38.1,21.1,26.68,WNW,293,9.3,15.2,50,0.00,,,0.00,WUHU216HW,2013-11-08 21:26:00,
2013-11-08 16:31:00,38.1,21.1,26.67,NNW,338,15.6,15.6,50,0.00,,,0.00,WUHU216HW,2013-11-08 21:31:00,
2013-11-08 16:36:00,37.9,20.9,26.68,NNW,338,8.5,16.3,50,0.00,,,0.00,WUHU216HW,2013-11-08 21:36:00,
2013-11-08 16:41:00,37.9,21.3,26.68,NW,315,9.3,16.3,51,0.00,,,0.00,WUHU216HW,2013-11-08 21:41:00,
2013-11-08 16:46:00,37.9,21.3,26.69,NW,315,9.3,9.3,51,0.00,,,0.00,WUHU216HW,2013-11-08 21:46:00,
2013-11-08 16:51:00,37.7,21.8,26.68,WNW,293,14.7,14.7,52,0.00,,,0.00,WUHU216HW,2013-11-08 21:51:00,
2013-11-08 16:56:00,37.7,21.6,26.69,NW,315,11.4,14.7,52,0.00,,,0.00,WUHU216HW,2013-11-08 21:56:00,
2013-11-08 17:01:00,37.5,21.5,26.69,WNW,293,6.9,14.7,52,0.00,,,0.00,WUHU216HW,2013-11-08 22:01:00,
2013-11-08 17:07:00,37.4,21.5,26.69,NW,315,3.1,11.4,52,0.00,,,0.00,WUHU216HW,2013-11-08 22:07:00,
2013-11-08 17:12:00,37.2,21.1,26.69,NW,315,5.3,7.3,52,0.00,,,0.00,WUHU216HW,2013-11-08 22:12:00,
2013-11-08 17:17:00,37.2,21.1,26.69,NNW,338,6.2,7.3,52,0.00,,,0.00,WUHU216HW,2013-11-08 22:17:00,
2013-11-08 17:22:00,37.2,21.6,26.69,NW,315,6.2,7.1,53,0.00,,,0.00,WUHU216HW,2013-11-08 22:22:00,
2013-11-08 17:27:00,37.0,21.4,26.69,WNW,293,13.1,13.1,53,0.00,,,0.00,WUHU216HW,2013-11-08 22:27:00,
2013-11-08 17:32:00,37.0,21.4,26.69,WNW,293,8.9,13.1,53,0.00,,,0.00,WUHU216HW,2013-11-08 22:32:00,
2013-11-08 17:37:00,36.8,21.2,26.69,West,270,8.0,8.9,53,0.00,,,0.00,WUHU216HW,2013-11-08 22:37:00,
2013-11-08 17:42:00,36.8,21.2,26.69,NW,315,8.2,10.2,53,0.00,,,0.00,WUHU216HW,2013-11-08 22:42:00,
2013-11-08 17:47:00,36.6,21.1,26.69,NNW,338,2.0,10.2,53,0.00,,,0.00,WUHU216HW,2013-11-08 22:47:00,
2013-11-08 17:52:00,36.6,21.1,26.69,NW,315,2.0,6.2,53,0.00,,,0.00,WUHU216HW,2013-11-08 22:52:00,
2013-11-08 17:57:00,36.5,21.3,26.69,WNW,293,7.1,7.1,54,0.00,,,0.00,WUHU216HW,2013-11-08 22:57:00,
2013-11-08 18:02:00,36.3,21.2,26.69,NW,315,2.9,7.1,54,0.00,,,0.00,WUHU216HW,2013-11-08 23:02:00,
2013-11-08 18:07:00,36.3,21.2,26.69,NW,315,0.0,4.6,54,0.00,,,0.00,WUHU216HW,2013-11-08 23:07:00,
2013-11-08 18:12:00,36.1,21.0,26.70,NW,315,0.0,2.9,54,0.00,,,0.00,WUHU216HW,2013-11-08 23:12:00,
2013-11-08 18:17:00,35.9,20.9,26.69,NW,315,0.0,5.3,54,0.00,,,0.00,WUHU216HW,2013-11-08 23:17:00,
2013-11-08 18:22:00,35.7,21.1,26.69,NW,315,4.2,5.3,55,0.00,,,0.00,WUHU216HW,2013-11-08 23:22:00,
2013-11-08 18:27:00,35.7,21.1,26.69,NW,315,0.2,4.2,55,0.00,,,0.00,WUHU216HW,2013-11-08 23:27:00,
2013-11-08 18:32:00,35.4,20.8,26.70,NW,315,3.3,6.9,55,0.00,,,0.00,WUHU216HW,2013-11-08 23:32:00,
2013-11-08 18:37:00,35.4,20.8,26.69,WNW,293,4.9,6.9,55,0.00,,,0.00,WUHU216HW,2013-11-08 23:37:00,
2013-11-08 18:42:00,35.4,20.8,26.69,NW,315,4.2,5.5,55,0.00,,,0.00,WUHU216HW,2013-11-08 23:42:00,
2013-11-08 18:47:00,35.2,20.6,26.69,NW,315,2.2,4.9,55,0.00,,,0.00,WUHU216HW,2013-11-08 23:47:00,
2013-11-08 18:52:00,35.2,20.6,26.69,NW,315,0.8,3.5,55,0.00,,,0.00,WUHU216HW,2013-11-08 23:52:00,
2013-11-08 18:57:00,35.2,21.0,26.70,NW,315,1.1,2.2,56,0.00,,,0.00,WUHU216HW,2013-11-08 23:57:00,
2013-11-08 19:02:00,34.8,20.3,26.70,NW,315,2.9,2.9,55,0.00,,,0.00,WUHU216HW,2013-11-09 00:02:00,
2013-11-08 19:07:00,34.5,20.3,26.70,NW,315,0.8,2.9,56,0.00,,,0.00,WUHU216HW,2013-11-09 00:07:00,
2013-11-08 19:12:00,34.3,20.1,26.70,NW,315,2.9,2.9,56,0.00,,,0.00,WUHU216HW,2013-11-09 00:12:00,
2013-11-08 19:17:00,34.3,20.1,26.70,NW,315,0.0,2.9,56,0.00,,,0.00,WUHU216HW,2013-11-09 00:17:00,
2013-11-08 19:22:00,34.3,20.1,26.70,NW,315,0.0,0.4,56,0.00,,,0.00,WUHU216HW,2013-11-09 00:22:00,
2013-11-08 19:27:00,34.3,20.6,26.70,NW,315,0.0,1.5,57,0.00,,,0.00,WUHU216HW,2013-11-09 00:27:00,
2013-11-08 19:32:00,33.9,20.2,26.69,NW,315,0.0,1.5,57,0.00,,,0.00,WUHU216HW,2013-11-09 00:32:00,
2013-11-08 19:37:00,33.8,20.0,26.70,NW,315,0.0,0.0,57,0.00,,,0.00,WUHU216HW,2013-11-09 00:37:00,
2013-11-08 19:42:00,33.6,20.3,26.71,NW,315,0.0,0.0,58,0.00,,,0.00,WUHU216HW,2013-11-09 00:42:00,
2013-11-08 19:47:00,33.8,20.5,26.70,WNW,293,2.9,5.3,58,0.00,,,0.00,WUHU216HW,2013-11-09 00:47:00,
2013-11-08 19:52:00,33.6,20.3,26.70,NW,315,2.4,5.3,58,0.00,,,0.00,WUHU216HW,2013-11-09 00:52:00,
2013-11-08 19:57:00,33.6,20.3,26.71,WNW,293,2.9,2.9,58,0.00,,,0.00,WUHU216HW,2013-11-09 00:57:00,
2013-11-08 20:02:00,33.2,20.4,26.70,NW,315,6.0,7.3,59,0.00,,,0.00,WUHU216HW,2013-11-09 01:02:00,
2013-11-08 20:07:00,33.0,20.3,26.71,NW,315,4.4,7.3,59,0.00,,,0.00,WUHU216HW,2013-11-09 01:07:00,
2013-11-08 20:12:00,33.0,20.3,26.71,WNW,293,6.2,6.2,59,0.00,,,0.00,WUHU216HW,2013-11-09 01:12:00,
2013-11-08 20:17:00,33.2,20.4,26.71,WNW,293,0.8,6.2,59,0.00,,,0.00,WUHU216HW,2013-11-09 01:17:00,
2013-11-08 20:22:00,33.4,20.6,26.71,WNW,293,2.9,6.2,59,0.00,,,0.00,WUHU216HW,2013-11-09 01:22:00,
2013-11-08 20:27:00,33.4,20.6,26.71,WNW,293,3.8,3.8,59,0.00,,,0.00,WUHU216HW,2013-11-09 01:27:00,
2013-11-08 20:32:00,33.6,20.7,26.71,WNW,293,0.0,3.8,59,0.00,,,0.00,WUHU216HW,2013-11-09 01:32:00,
2013-11-08 20:37:00,33.6,20.7,26.71,WNW,293,0.0,0.0,59,0.00,,,0.00,WUHU216HW,2013-11-09 01:37:00,
2013-11-08 20:42:00,33.6,20.7,26.71,WNW,293,0.0,0.0,59,0.00,,,0.00,WUHU216HW,2013-11-09 01:42:00,
2013-11-08 20:47:00,33.6,20.7,26.71,WNW,293,0.0,0.0,59,0.00,,,0.00,WUHU216HW,2013-11-09 01:47:00,
2013-11-08 20:52:00,33.4,20.6,26.72,West,270,0.0,0.0,59,0.00,,,0.00,WUHU216HW,2013-11-09 01:52:00,
2013-11-08 20:57:00,33.4,20.6,26.72,West,270,0.0,0.0,59,0.00,,,0.00,WUHU216HW,2013-11-09 01:57:00,
2013-11-08 21:02:00,33.4,20.6,26.72,West,270,0.0,0.0,59,0.00,,,0.00,WUHU216HW,2013-11-09 02:02:00,
2013-11-08 21:07:00,33.6,20.7,26.72,West,270,0.0,0.0,59,0.00,,,0.00,WUHU216HW,2013-11-09 02:07:00,
2013-11-08 21:12:00,33.6,20.7,26.72,West,270,0.0,0.0,59,0.00,,,0.00,WUHU216HW,2013-11-09 02:12:00,
2013-11-08 21:18:00,33.4,21.0,26.72,West,270,0.0,0.0,60,0.00,,,0.00,WUHU216HW,2013-11-09 02:18:00,
2013-11-08 21:23:00,33.4,21.0,26.72,West,270,0.0,0.0,60,0.00,,,0.00,WUHU216HW,2013-11-09 02:23:00,
2013-11-08 21:28:00,33.4,21.0,26.72,West,270,0.0,0.0,60,0.00,,,0.00,WUHU216HW,2013-11-09 02:28:00,
2013-11-08 21:33:00,33.2,20.8,26.72,West,270,0.0,0.0,60,0.00,,,0.00,WUHU216HW,2013-11-09 02:33:00,
2013-11-08 21:38:00,33.2,20.8,26.73,West,270,0.0,0.0,60,0.00,,,0.00,WUHU216HW,2013-11-09 02:38:00,
2013-11-08 21:43:00,33.2,20.8,26.72,West,270,0.0,0.0,60,0.00,,,0.00,WUHU216HW,2013-11-09 02:43:00,
2013-11-08 21:48:00,33.0,20.7,26.72,West,270,0.0,0.0,60,0.00,,,0.00,WUHU216HW,2013-11-09 02:48:00,
2013-11-08 21:53:00,33.0,21.0,26.73,West,270,0.0,0.0,61,0.00,,,0.00,WUHU216HW,2013-11-09 02:53:00,
2013-11-08 21:58:00,33.0,21.0,26.73,West,270,0.0,0.0,61,0.00,,,0.00,WUHU216HW,2013-11-09 02:58:00,
2013-11-08 22:03:00,32.9,20.9,26.73,West,270,0.0,0.0,61,0.00,,,0.00,WUHU216HW,2013-11-09 03:03:00,
2013-11-08 22:08:00,32.9,20.9,26.72,West,270,0.0,0.0,61,0.00,,,0.00,WUHU216HW,2013-11-09 03:08:00,
2013-11-08 22:13:00,32.9,20.9,26.73,West,270,0.0,0.0,61,0.00,,,0.00,WUHU216HW,2013-11-09 03:13:00,
2013-11-08 22:18:00,32.7,20.7,26.73,West,270,0.0,0.0,61,0.00,,,0.00,WUHU216HW,2013-11-09 03:18:00,
2013-11-08 22:23:00,32.7,20.7,26.72,West,270,0.0,0.0,61,0.00,,,0.00,WUHU216HW,2013-11-09 03:23:00,
2013-11-08 22:28:00,32.7,20.7,26.72,West,270,0.0,0.0,61,0.00,,,0.00,WUHU216HW,2013-11-09 03:28:00,
2013-11-08 22:33:00,32.7,20.7,26.72,West,270,0.0,0.0,61,0.00,,,0.00,WUHU216HW,2013-11-09 03:33:00,
2013-11-08 22:38:00,32.5,20.6,26.71,West,270,0.0,0.0,61,0.00,,,0.00,WUHU216HW,2013-11-09 03:38:00,
2013-11-08 22:43:00,32.3,20.8,26.71,West,270,0.0,0.0,62,0.00,,,0.00,WUHU216HW,2013-11-09 03:43:00,
2013-11-08 22:48:00,32.3,20.8,26.71,WNW,293,0.0,0.0,62,0.00,,,0.00,WUHU216HW,2013-11-09 03:48:00,
2013-11-08 22:53:00,32.3,20.8,26.71,WNW,293,0.0,0.0,62,0.00,,,0.00,WUHU216HW,2013-11-09 03:53:00,
2013-11-08 22:58:00,32.1,20.6,26.72,WNW,293,0.0,0.0,62,0.00,,,0.00,WUHU216HW,2013-11-09 03:58:00,
2013-11-08 23:03:00,32.1,20.6,26.72,WNW,293,0.0,0.0,62,0.00,,,0.00,WUHU216HW,2013-11-09 04:03:00,
2013-11-08 23:08:00,32.1,20.6,26.72,WNW,293,0.0,0.0,62,0.00,,,0.00,WUHU216HW,2013-11-09 04:08:00,
2013-11-08 23:13:00,31.8,20.3,26.72,WNW,293,0.0,0.0,62,0.00,,,0.00,WUHU216HW,2013-11-09 04:13:00,
2013-11-08 23:18:00,31.8,20.3,26.72,WNW,293,0.0,0.0,62,0.00,,,0.00,WUHU216HW,2013-11-09 04:18:00,
2013-11-08 23:23:00,31.8,20.3,26.72,WNW,293,0.0,0.0,62,0.00,,,0.00,WUHU216HW,2013-11-09 04:23:00,
2013-11-08 23:28:00,31.8,20.6,26.72,WNW,293,0.0,0.0,63,0.00,,,0.00,WUHU216HW,2013-11-09 04:28:00,
2013-11-08 23:33:00,31.6,20.4,26.72,WNW,293,0.0,0.0,63,0.00,,,0.00,WUHU216HW,2013-11-09 04:33:00,
2013-11-08 23:38:00,31.6,20.4,26.72,WNW,293,0.0,0.0,63,0.00,,,0.00,WUHU216HW,2013-11-09 04:38:00,
2013-11-08 23:43:00,31.6,20.4,26.72,WNW,293,0.0,0.0,63,0.00,,,0.00,WUHU216HW,2013-11-09 04:43:00,
2013-11-08 23:48:00,31.6,20.4,26.72,WNW,293,0.0,0.0,63,0.00,,,0.00,WUHU216HW,2013-11-09 04:48:00,
2013-11-08 23:53:00,31.6,20.8,26.72,WNW,293,0.0,0.0,64,0.00,,,0.00,WUHU216HW,2013-11-09 04:53:00,
2013-11-08 23:58:00,31.6,20.8,26.72,WNW,293,0.0,0.0,64,0.00,,,0.00,WUHU216HW,2013-11-09 04:58:00,